createdAt,value
2024-02-01T00:03:29.282Z,53.50
2024-02-01T00:08:31.745Z,53.60
2024-02-01T00:13:34.542Z,53.40
2024-02-01T00:18:37.172Z,53.40
2024-02-01T00:23:39.739Z,53.50
2024-02-01T00:28:42.466Z,53.60
2024-02-01T00:33:46.241Z,53.50
2024-02-01T00:38:48.927Z,53.60
2024-02-01T00:43:52.158Z,53.40
2024-02-01T00:48:54.823Z,53.50
2024-02-01T00:53:57.486Z,53.60
2024-02-01T00:58:59.982Z,53.40
2024-02-01T01:04:03.624Z,53.60
2024-02-01T01:09:06.478Z,53.70
2024-02-01T01:14:09.251Z,53.70
2024-02-01T01:19:12.024Z,53.60
2024-02-01T01:24:14.773Z,53.80
2024-02-01T01:29:17.521Z,53.90
2024-02-01T01:34:20.290Z,53.80
2024-02-01T01:39:22.875Z,54.10
2024-02-01T01:44:25.419Z,53.60
2024-02-01T01:49:28.185Z,54.00
2024-02-01T01:54:32.813Z,53.40
2024-02-01T01:59:35.781Z,53.70
2024-02-01T02:04:38.541Z,53.70
2024-02-01T02:09:41.122Z,53.80
2024-02-01T02:14:43.787Z,54.10
2024-02-01T02:19:47.217Z,53.80
2024-02-01T02:24:50.264Z,53.80
2024-02-01T02:29:52.841Z,53.70
2024-02-01T02:34:55.400Z,54.00
2024-02-01T02:39:58.287Z,54.10
2024-02-01T02:45:00.798Z,54.00
2024-02-01T02:50:07.262Z,54.40
2024-02-01T02:55:11.336Z,54.50
2024-02-01T03:00:20.324Z,54.70
2024-02-01T03:05:23.339Z,54.40
2024-02-01T03:10:25.858Z,54.40
2024-02-01T03:15:30.371Z,54.10
2024-02-01T03:20:33.566Z,54.30
2024-02-01T03:25:37.422Z,54.30
2024-02-01T03:30:39.909Z,54.30
2024-02-01T03:35:43.807Z,54.10
2024-02-01T03:40:46.561Z,54.30
2024-02-01T03:45:50.252Z,53.40
2024-02-01T03:50:53.336Z,54.30
2024-02-01T03:55:56.155Z,53.60
2024-02-01T04:01:02.725Z,53.90
2024-02-01T04:06:05.557Z,54.00
2024-02-01T04:11:08.131Z,54.40
2024-02-01T04:16:10.876Z,54.70
2024-02-01T04:21:13.472Z,55.40
2024-02-01T04:26:17.879Z,54.90
2024-02-01T04:31:20.514Z,55.60
2024-02-01T04:36:23.117Z,54.90
2024-02-01T04:41:26.072Z,54.90
2024-02-01T04:46:28.546Z,55.20
2024-02-01T04:51:31.772Z,54.70
2024-02-01T04:56:37.747Z,55.10
2024-02-01T05:01:41.917Z,54.90
2024-02-01T05:06:44.737Z,55.30
2024-02-01T05:11:47.291Z,55.00
2024-02-01T05:16:51.375Z,55.00
2024-02-01T05:21:54.833Z,54.70
2024-02-01T05:26:58.434Z,55.20
2024-02-01T05:32:01.759Z,54.80
2024-02-01T05:37:04.518Z,55.20
2024-02-01T05:42:07.921Z,54.60
2024-02-01T05:47:10.426Z,55.40
2024-02-01T05:52:14.062Z,55.00
2024-02-01T05:57:17.181Z,56.00
2024-02-01T06:02:19.771Z,55.60
2024-02-01T06:07:22.623Z,56.60
2024-02-01T06:12:25.482Z,56.30
2024-02-01T06:17:28.201Z,56.30
2024-02-01T06:22:32.246Z,56.80
2024-02-01T06:27:34.972Z,57.20
2024-02-01T06:32:38.765Z,57.40
2024-02-01T06:37:43.983Z,57.80
2024-02-01T06:42:57.061Z,58.00
2024-02-01T06:48:08.308Z,58.10
2024-02-01T06:53:20.280Z,58.20
2024-02-01T06:58:40.282Z,58.20
2024-02-01T07:03:52.345Z,58.40
2024-02-01T07:08:57.369Z,58.50
2024-02-01T07:14:09.569Z,58.30
2024-02-01T07:19:25.112Z,58.30
2024-02-01T07:24:39.257Z,58.30
2024-02-01T07:30:01.579Z,58.60
2024-02-01T07:35:25.096Z,63.00
2024-02-01T07:40:47.536Z,63.20
2024-02-01T07:46:10.213Z,56.70
2024-02-01T07:51:32.493Z,60.90
2024-02-01T07:56:55.124Z,60.80
2024-02-01T08:02:17.582Z,52.40
2024-02-01T08:07:39.988Z,53.80
2024-02-01T08:12:42.539Z,50.70
2024-02-01T08:17:45.276Z,54.20
2024-02-01T08:22:48.504Z,51.00
2024-02-01T08:27:55.137Z,52.70
2024-02-01T08:33:05.166Z,45.80
2024-02-01T08:38:08.535Z,47.20
2024-02-01T08:43:13.512Z,50.30
2024-02-01T08:48:16.268Z,49.70
2024-02-01T08:53:20.603Z,47.60
2024-02-01T08:58:23.224Z,44.50
2024-02-01T09:03:31.336Z,45.90
2024-02-01T09:08:37.674Z,46.00
2024-02-01T09:13:46.138Z,45.30
2024-02-01T09:18:50.192Z,47.10
2024-02-01T09:23:53.098Z,45.60
2024-02-01T09:28:56.087Z,42.40
2024-02-01T09:33:58.983Z,41.30
2024-02-01T09:39:02.239Z,42.10
2024-02-01T09:44:08.314Z,42.50
2024-02-01T09:49:17.982Z,42.60
2024-02-01T09:54:24.444Z,41.30
2024-02-01T09:59:27.196Z,41.30
2024-02-01T10:04:29.949Z,41.80
2024-02-01T10:09:32.574Z,42.80
2024-02-01T10:14:39.531Z,42.30
2024-02-01T10:20:02.994Z,42.60
2024-02-01T10:25:05.723Z,43.40
2024-02-01T10:30:11.418Z,42.50
2024-02-01T10:35:15.537Z,41.30
2024-02-01T10:40:27.432Z,40.80
2024-02-01T10:45:33.972Z,40.00
2024-02-01T10:50:40.360Z,39.80
2024-02-01T10:55:49.352Z,43.00
2024-02-01T11:00:55.476Z,43.80
2024-02-01T11:05:59.418Z,44.50
2024-02-01T11:11:02.226Z,45.40
2024-02-01T11:16:05.584Z,45.00
2024-02-01T11:21:09.642Z,45.20
2024-02-01T11:26:16.916Z,45.00
2024-02-01T11:31:27.713Z,46.00
2024-02-01T11:36:35.005Z,46.80
2024-02-01T11:41:38.856Z,46.70
2024-02-01T11:46:47.018Z,48.00
2024-02-01T11:52:14.856Z,47.90
2024-02-01T11:57:19.886Z,47.30
2024-02-01T12:02:26.118Z,47.50
2024-02-01T12:07:29.355Z,47.70
2024-02-01T12:12:32.087Z,47.70
2024-02-01T12:17:43.551Z,47.40
2024-02-01T12:22:48.206Z,48.10
2024-02-01T12:27:51.711Z,48.40
2024-02-01T12:32:54.894Z,47.60
2024-02-01T12:37:57.579Z,48.90
2024-02-01T12:43:02.886Z,48.50
2024-02-01T12:48:06.692Z,48.80
2024-02-01T12:53:10.047Z,49.70
2024-02-01T12:58:19.416Z,49.50
2024-02-01T13:03:22.263Z,48.10
2024-02-01T13:08:25.167Z,47.80
2024-02-01T13:13:27.839Z,48.00
2024-02-01T13:18:30.483Z,48.30
2024-02-01T13:23:33.386Z,48.60
2024-02-01T13:28:36.020Z,49.30
2024-02-01T13:33:39.162Z,49.30
2024-02-01T13:38:42.232Z,49.00
2024-02-01T13:43:44.824Z,49.50
2024-02-01T13:48:47.738Z,49.80
2024-02-01T13:53:50.581Z,49.80
2024-02-01T13:58:53.576Z,50.30
2024-02-01T14:03:57.262Z,50.20
2024-02-01T14:09:05.443Z,50.70
2024-02-01T14:14:08.732Z,50.70
2024-02-01T14:19:11.470Z,50.60
2024-02-01T14:24:14.183Z,51.00
2024-02-01T14:29:16.816Z,51.50
2024-02-01T14:34:19.628Z,51.60
2024-02-01T14:39:22.901Z,51.40
2024-02-01T14:44:25.728Z,51.80
2024-02-01T14:49:29.080Z,52.20
2024-02-01T14:54:31.796Z,52.30
2024-02-01T14:59:34.412Z,52.40
2024-02-01T15:04:38.411Z,52.60
2024-02-01T15:09:41.357Z,52.90
2024-02-01T15:14:43.976Z,52.90
2024-02-01T15:19:46.931Z,53.00
2024-02-01T15:24:49.497Z,52.80
2024-02-01T15:29:52.022Z,52.60
2024-02-01T15:34:54.691Z,52.20
2024-02-01T15:39:57.557Z,52.20
2024-02-01T15:45:00.741Z,52.20
2024-02-01T15:50:05.150Z,52.20
2024-02-01T15:55:11.532Z,52.20
2024-02-01T16:00:14.641Z,52.20
2024-02-01T16:05:17.605Z,52.20
2024-02-01T16:10:20.405Z,52.10
2024-02-01T16:15:33.757Z,52.20
2024-02-01T16:20:44.256Z,52.20
2024-02-01T16:25:47.688Z,51.90
2024-02-01T16:36:06.336Z,51.90
2024-02-01T16:41:25.974Z,51.80
2024-02-01T16:51:59.296Z,51.40
2024-02-01T16:57:06.180Z,51.50
2024-02-01T17:02:46.433Z,51.70
2024-02-01T17:07:49.540Z,51.20
2024-02-01T17:12:52.352Z,51.20
2024-02-01T17:17:55.139Z,51.30
2024-02-01T17:22:58.429Z,51.50
2024-02-01T17:28:02.275Z,51.20
2024-02-01T17:33:05.807Z,51.10
2024-02-01T17:38:13.734Z,50.90
2024-02-01T17:43:20.126Z,51.10
2024-02-01T17:48:40.190Z,51.00
2024-02-01T17:53:43.881Z,50.90
2024-02-01T17:58:47.496Z,51.10
2024-02-01T18:03:57.012Z,51.00
2024-02-01T18:08:59.680Z,50.80
2024-02-01T18:14:02.465Z,50.80
2024-02-01T18:19:07.298Z,51.00
2024-02-01T18:24:31.036Z,51.00
2024-02-01T18:29:50.224Z,50.90
2024-02-01T18:34:53.193Z,51.00
2024-02-01T18:39:56.034Z,50.90
2024-02-01T18:45:00.762Z,50.80
2024-02-01T18:50:11.422Z,50.90
2024-02-01T18:55:16.919Z,50.90
2024-02-01T19:00:41.032Z,50.80
2024-02-01T19:05:45.047Z,50.70
2024-02-01T19:10:47.941Z,50.80
2024-02-01T19:15:51.572Z,50.80
2024-02-01T19:20:55.640Z,50.70
2024-02-01T19:25:58.497Z,50.70
2024-02-01T19:31:01.322Z,50.70
2024-02-01T19:36:03.975Z,50.60
2024-02-01T19:41:06.807Z,50.60
2024-02-01T19:46:09.632Z,50.50
2024-02-01T19:51:12.211Z,50.60
2024-02-01T19:56:16.356Z,51.10
2024-02-01T20:01:19.808Z,50.50
2024-02-01T20:06:30.483Z,50.40
2024-02-01T20:11:34.078Z,50.50
2024-02-01T20:16:40.734Z,50.30
2024-02-01T20:21:45.320Z,50.50
2024-02-01T20:26:49.511Z,50.40
2024-02-01T20:31:53.016Z,50.40
2024-02-01T20:37:02.605Z,50.30
2024-02-01T20:42:12.741Z,50.30
2024-02-01T20:47:23.184Z,50.10
2024-02-01T20:52:29.043Z,50.00
2024-02-01T20:57:34.524Z,49.90
2024-02-01T21:08:17.401Z,50.00
2024-02-01T21:13:21.438Z,49.90
2024-02-01T21:18:25.977Z,49.90
2024-02-01T21:23:36.860Z,49.90
2024-02-01T21:28:39.397Z,49.80
2024-02-01T21:33:42.176Z,49.90
2024-02-01T21:38:46.157Z,49.90
2024-02-01T21:43:48.770Z,49.90
2024-02-01T21:48:51.533Z,49.90
2024-02-01T21:53:54.702Z,50.00
2024-02-01T21:58:57.562Z,49.80
2024-02-01T22:04:00.174Z,49.90
2024-02-01T22:09:02.832Z,49.70
2024-02-01T22:14:05.810Z,49.60
2024-02-01T22:19:08.853Z,49.50
2024-02-01T22:24:11.535Z,49.60
2024-02-01T22:29:14.096Z,49.80
2024-02-01T22:34:17.821Z,49.80
2024-02-01T22:39:20.563Z,49.70
2024-02-01T22:44:23.246Z,49.70
2024-02-01T22:49:26.290Z,49.60
2024-02-01T22:54:29.075Z,49.60
2024-02-01T22:59:31.747Z,49.50
2024-02-01T23:04:34.350Z,49.10
2024-02-01T23:09:36.954Z,49.40
2024-02-01T23:14:39.427Z,49.50
2024-02-01T23:19:42.181Z,49.50
2024-02-01T23:24:45.222Z,49.20
2024-02-01T23:29:48.039Z,48.90
2024-02-01T23:34:51.345Z,49.10
2024-02-01T23:39:54.183Z,48.90
2024-02-01T23:44:56.776Z,48.80
2024-02-01T23:49:59.934Z,48.80
2024-02-01T23:55:02.752Z,49.10
